Time;durP1;ratioP1;P1;durP2;ratioP2;P2;SDS_P1;SDS_P2;PMS_P1;PMS_P2;Temp;Humidity;BMP_temperature;BMP_pressure;BME280_temperature;BME280_humidity;BME280_pressure;Samples;Min_cycle;Max_cycle;Signal;HPM_P1;HPM_P2
2021/10/28 00:14:06;;;;;;;29.27;13.93;;;;;;;15.47;100.00;101856.66;5093508;28;20270;-57
2021/10/28 00:16:34;;;;;;;24.45;13.50;;;;;;;15.64;100.00;101857.13;5093091;28;20248;-57
2021/10/28 00:19:03;;;;;;;20.60;13.43;;;;;;;15.64;100.00;101854.41;5093506;28;20107;-58
2021/10/28 00:21:34;;;;;;;25.37;14.13;;;;;;;15.67;100.00;101851.31;5097055;28;20273;-52
2021/10/28 00:24:05;;;;;;;25.90;13.03;;;;;;;15.66;100.00;101855.03;5097244;28;20260;-56
2021/10/28 00:26:33;;;;;;;24.77;14.40;;;;;;;15.77;100.00;101856.31;5096656;28;20268;-52
2021/10/28 00:29:07;;;;;;;28.13;14.25;;;;;;;15.36;100.00;101855.38;5097214;28;20245;-58
2021/10/28 00:31:36;;;;;;;28.33;13.67;;;;;;;15.34;100.00;101857.47;5096787;28;20035;-58
2021/10/28 00:34:03;;;;;;;25.13;13.53;;;;;;;15.31;100.00;101855.13;5096954;28;20241;-56
2021/10/28 00:36:29;;;;;;;24.43;14.17;;;;;;;15.48;100.00;101853.75;5096482;28;20268;-57
2021/10/28 00:38:56;;;;;;;25.77;13.93;;;;;;;15.42;100.00;101851.03;5096455;28;20334;-56
2021/10/28 00:41:23;;;;;;;27.45;13.43;;;;;;;14.95;100.00;101850.88;5097081;28;20074;-55
2021/10/28 00:43:52;;;;;;;26.33;14.53;;;;;;;15.09;100.00;101841.78;5096571;28;20028;-56
2021/10/28 00:46:19;;;;;;;23.20;13.77;;;;;;;14.90;100.00;101848.75;5096466;28;20261;-53
2021/10/28 00:48:46;;;;;;;26.33;14.63;;;;;;;14.59;100.00;101840.06;5097206;28;20361;-51
2021/10/28 00:51:13;;;;;;;25.05;14.43;;;;;;;14.85;100.00;101845.84;5096820;28;20036;-57
2021/10/28 00:53:38;;;;;;;29.10;13.98;;;;;;;14.90;100.00;101846.06;5096845;28;20032;-54
2021/10/28 00:56:05;;;;;;;28.40;12.77;;;;;;;14.95;100.00;101849.00;5096758;28;20035;-56
2021/10/28 00:58:32;;;;;;;29.40;14.23;;;;;;;15.02;100.00;101838.25;5096856;28;20028;-53
2021/10/28 01:01:00;;;;;;;30.67;14.83;;;;;;;15.00;100.00;101840.31;5095898;28;20036;-54
2021/10/28 01:03:26;;;;;;;27.83;13.97;;;;;;;15.14;100.00;101847.44;5095662;28;20340;-55
2021/10/28 01:05:52;;;;;;;28.65;13.55;;;;;;;15.04;100.00;101847.81;5096799;28;20279;-55
2021/10/28 01:08:18;;;;;;;25.60;14.40;;;;;;;15.03;100.00;101845.31;5095116;28;20036;-51
2021/10/28 01:10:48;;;;;;;29.02;13.60;;;;;;;15.07;100.00;101841.16;5096598;28;20040;-57
2021/10/28 01:13:16;;;;;;;28.88;13.65;;;;;;;14.91;100.00;101837.81;5095715;28;20036;-57
2021/10/28 01:15:42;;;;;;;24.93;13.47;;;;;;;15.10;100.00;101845.34;5095151;28;20373;-57
2021/10/28 01:18:12;;;;;;;23.83;13.48;;;;;;;15.02;100.00;101835.56;5096278;28;20323;-58
2021/10/28 01:20:39;;;;;;;25.07;13.07;;;;;;;14.78;100.00;101837.72;5096448;28;20524;-57
2021/10/28 01:23:06;;;;;;;24.50;14.20;;;;;;;14.79;100.00;101830.50;5096316;28;20280;-56
2021/10/28 01:25:32;;;;;;;22.93;12.03;;;;;;;14.84;100.00;101831.53;5061347;28;20040;-54
2021/10/28 01:28:00;;;;;;;25.27;13.68;;;;;;;15.02;100.00;101830.16;5094968;28;20248;-56
2021/10/28 01:30:25;;;;;;;26.75;13.18;;;;;;;15.01;100.00;101832.06;5094633;28;20039;-58
2021/10/28 01:32:51;;;;;;;25.27;13.77;;;;;;;14.88;100.00;101830.13;5095216;28;20092;-57
2021/10/28 01:35:19;;;;;;;26.10;13.50;;;;;;;14.53;100.00;101835.47;5096100;28;20067;-57
2021/10/28 01:37:45;;;;;;;20.92;13.20;;;;;;;14.71;100.00;101831.47;5096182;28;20377;-58
2021/10/28 01:40:12;;;;;;;27.52;13.60;;;;;;;14.82;100.00;101832.78;5095830;28;20172;-58
2021/10/28 01:42:39;;;;;;;25.70;13.40;;;;;;;14.68;100.00;101831.84;5095576;28;20034;-54
2021/10/28 01:45:06;;;;;;;25.73;13.43;;;;;;;14.59;100.00;101831.19;5096098;28;20127;-58
2021/10/28 01:47:32;;;;;;;31.17;14.38;;;;;;;14.52;100.00;101827.59;5094749;28;20415;-57
2021/10/28 01:49:58;;;;;;;23.63;13.05;;;;;;;14.53;100.00;101813.09;5095794;28;20035;-58
2021/10/28 01:52:24;;;;;;;25.50;13.23;;;;;;;14.77;100.00;101820.75;5077714;28;20480;-56
2021/10/28 01:54:50;;;;;;;26.45;13.43;;;;;;;15.05;100.00;101816.28;5095682;28;20036;-56
2021/10/28 01:57:20;;;;;;;26.60;13.75;;;;;;;14.57;100.00;101817.91;5095866;28;20032;-57
2021/10/28 01:59:45;;;;;;;28.23;14.32;;;;;;;14.82;100.00;101825.53;5095797;28;20438;-56
2021/10/28 02:02:11;;;;;;;26.43;13.40;;;;;;;14.74;100.00;101820.31;5095677;28;20162;-56
2021/10/28 02:04:37;;;;;;;;;;;;;;;14.51;100.00;101815.16;5096515;28;20032;-57
2021/10/28 02:07:04;;;;;;;22.53;12.60;;;;;;;14.71;100.00;101818.03;5077707;28;20349;-57
2021/10/28 02:09:30;;;;;;;30.90;13.68;;;;;;;14.65;100.00;101811.53;5095607;28;20032;-57
2021/10/28 02:11:56;;;;;;;;;;;;;;;14.54;100.00;101807.53;5095779;28;20129;-55
2021/10/28 02:14:21;;;;;;;24.30;13.00;;;;;;;14.48;100.00;101805.66;5077233;28;20023;-53
2021/10/28 02:16:47;;;;;;;36.90;14.40;;;;;;;14.39;100.00;101799.59;5077272;28;20035;-54
2021/10/28 02:19:12;;;;;;;28.17;13.93;;;;;;;14.54;100.00;101798.66;5095130;28;20043;-54
2021/10/28 02:21:38;;;;;;;32.67;14.23;;;;;;;14.36;100.00;101794.59;5095334;28;20027;-56
2021/10/28 02:29:50;;;;;;;28.20;14.38;;;;;;;14.79;100.00;101787.41;4934046;29;20051;-58
2021/10/28 02:32:16;;;;;;;27.25;14.23;;;;;;;14.30;100.00;101790.00;4919659;29;20043;-58
2021/10/28 02:34:42;;;;;;;24.87;13.07;;;;;;;14.27;100.00;101775.09;4936944;29;20051;-60
2021/10/28 02:37:08;;;;;;;28.98;13.18;;;;;;;14.51;100.00;101780.19;4935245;29;20055;-59
2021/10/28 02:39:35;;;;;;;25.10;13.68;;;;;;;14.31;100.00;101767.47;4936601;29;20024;-60
2021/10/28 02:42:01;;;;;;;24.42;14.25;;;;;;;14.07;100.00;101766.91;4934852;29;20229;-59
2021/10/28 02:44:26;;;;;;;28.63;14.32;;;;;;;13.87;100.00;101756.81;4919680;29;20374;-59
2021/10/28 02:46:52;;;;;;;27.20;14.05;;;;;;;13.76;100.00;101765.41;4935742;29;20057;-59
2021/10/28 02:49:18;;;;;;;24.87;14.57;;;;;;;13.61;100.00;101760.94;4919369;29;20102;-59
2021/10/28 02:51:47;;;;;;;30.55;14.27;;;;;;;13.69;100.00;101759.13;4936048;29;20389;-59
2021/10/28 02:54:14;;;;;;;27.13;14.48;;;;;;;13.81;100.00;101760.25;4936317;29;20055;-59
2021/10/28 02:56:39;;;;;;;;;;;;;;;13.84;100.00;101759.91;4936809;29;20047;-59
2021/10/28 02:59:05;;;;;;;21.23;12.77;;;;;;;13.84;100.00;101754.53;4936222;29;20295;-58
2021/10/28 03:01:30;;;;;;;31.07;14.60;;;;;;;13.66;100.00;101749.59;4936448;29;20493;-59
2021/10/28 03:03:56;;;;;;;32.57;13.50;;;;;;;13.73;100.00;101757.72;4919488;29;20274;-58
2021/10/28 03:06:21;;;;;;;40.33;15.17;;;;;;;13.62;100.00;101759.91;4936279;29;20039;-58
2021/10/28 03:08:49;;;;;;;28.67;13.55;;;;;;;13.58;100.00;101749.75;4936406;29;20047;-59
2021/10/28 03:11:15;;;;;;;22.30;13.68;;;;;;;13.57;100.00;101745.38;4938237;29;20231;-59
2021/10/28 03:13:41;;;;;;;35.83;13.43;;;;;;;13.60;100.00;101747.69;4935823;29;20066;-59
2021/10/28 03:17:20;;;;;;;27.95;15.27;;;;;;;13.60;100.00;101745.81;4935870;29;20044;-58
2021/10/28 03:27:04;;;;;;;;;;;;;;;13.96;100.00;101727.09;4936459;29;20040;-59
2021/10/28 03:29:29;;;;;;;25.53;13.20;;;;;;;13.92;100.00;101723.94;4935289;29;19922;-59
2021/10/28 03:31:55;;;;;;;29.40;13.37;;;;;;;14.10;100.00;101719.94;4936234;29;20090;-60
2021/10/28 03:34:21;;;;;;;30.48;13.35;;;;;;;13.83;100.00;101725.13;4936257;29;20062;-58
2021/10/28 03:36:53;;;;;;;25.50;14.18;;;;;;;13.92;100.00;101718.56;4935900;29;20048;-59
2021/10/28 03:53:14;;;;;;;30.27;15.05;;;;;;;13.58;100.00;101709.44;4935655;29;20052;-59
2021/10/28 04:17:14;;;;;;;28.05;13.50;;;;;;;13.26;100.00;101701.69;4935331;29;20168;-59
2021/10/28 04:30:23;;;;;;;26.25;13.30;;;;;;;13.26;100.00;101690.09;4934569;29;20569;-59
2021/10/28 04:32:50;;;;;;;30.48;14.80;;;;;;;13.01;100.00;101683.25;4924204;29;20044;-59
2021/10/28 04:35:17;;;;;;;;;;;;;;;12.87;100.00;101694.88;4934299;29;20070;-59
2021/10/28 04:37:44;;;;;;;30.80;14.95;;;;;;;13.02;100.00;101684.91;4935259;29;19929;-59
2021/10/28 04:40:11;;;;;;;31.58;13.23;;;;;;;13.12;100.00;101694.50;4934324;29;20476;-61
2021/10/28 04:42:36;;;;;;;25.13;14.73;;;;;;;13.20;100.00;101691.72;4935039;29;20044;-58
2021/10/28 04:45:03;;;;;;;30.53;14.27;;;;;;;13.25;100.00;101689.28;4935232;29;20098;-59
2021/10/28 04:47:28;;;;;;;;;;;;;;;13.23;100.00;101687.78;4936135;29;20806;-59
2021/10/28 04:49:54;;;;;;;30.67;14.10;;;;;;;13.25;100.00;101696.47;4935338;29;20001;-59
2021/10/28 04:52:21;;;;;;;33.43;13.70;;;;;;;13.36;100.00;101679.88;4933820;29;20437;-55
2021/10/28 04:54:47;;;;;;;31.52;13.88;;;;;;;13.35;100.00;101680.88;4934353;29;20288;-59
2021/10/28 04:57:12;;;;;;;27.23;14.20;;;;;;;13.30;100.00;101694.06;4934603;29;20044;-58
2021/10/28 04:59:38;;;;;;;28.97;13.47;;;;;;;13.29;100.00;101692.41;4934691;29;20048;-58
2021/10/28 05:02:04;;;;;;;32.40;14.80;;;;;;;13.33;100.00;101694.50;4933999;29;20032;-58
2021/10/28 05:04:30;;;;;;;33.50;14.90;;;;;;;13.17;100.00;101694.78;4933826;29;20040;-59
2021/10/28 05:06:55;;;;;;;29.17;14.37;;;;;;;13.20;100.00;101694.41;4938355;29;20040;-58
2021/10/28 05:09:26;;;;;;;30.70;14.00;;;;;;;13.11;100.00;101685.63;4937631;29;20119;-59
2021/10/28 05:11:52;;;;;;;28.05;14.98;;;;;;;13.16;100.00;101683.19;4938801;29;20748;-60
2021/10/28 05:14:17;;;;;;;28.57;13.17;;;;;;;13.08;100.00;101698.59;4938638;29;20044;-59
2021/10/28 05:16:43;;;;;;;29.83;14.77;;;;;;;12.85;100.00;101692.38;4946287;29;20048;-59
2021/10/28 05:19:08;;;;;;;30.20;14.53;;;;;;;13.02;100.00;101698.34;4940380;29;20316;-60
2021/10/28 05:21:34;;;;;;;26.30;14.77;;;;;;;13.16;100.00;101693.13;4940327;29;20355;-60
2021/10/28 05:24:00;;;;;;;29.95;13.88;;;;;;;13.04;100.00;101693.63;4949206;29;20032;-59
2021/10/28 05:26:26;;;;;;;35.92;15.98;;;;;;;13.02;100.00;101690.28;4946178;29;20079;-58
2021/10/28 05:28:51;;;;;;;33.40;15.10;;;;;;;13.07;100.00;101686.19;4948443;28;20445;-59
2021/10/28 05:31:17;;;;;;;34.90;13.47;;;;;;;13.01;100.00;101680.56;4947335;29;20405;-59
2021/10/28 05:33:43;;;;;;;31.92;14.70;;;;;;;13.01;100.00;101677.88;4929394;29;20380;-60
2021/10/28 05:36:08;;;;;;;36.17;14.70;;;;;;;12.95;100.00;101685.88;4921172;29;20055;-59
2021/10/28 05:38:34;;;;;;;38.58;15.00;;;;;;;13.03;100.00;101678.53;4920545;29;20090;-60
2021/10/28 05:41:00;;;;;;;29.08;14.38;;;;;;;13.05;100.00;101673.78;4944505;29;20042;-59
2021/10/28 05:43:26;;;;;;;35.53;15.57;;;;;;;13.04;100.00;101671.31;4922638;29;20040;-59
2021/10/28 05:45:51;;;;;;;51.78;15.93;;;;;;;13.33;100.00;101662.25;4920822;29;20056;-58
2021/10/28 05:48:17;;;;;;;34.30;13.93;;;;;;;13.17;100.00;101671.44;4937344;29;20040;-59
2021/10/28 05:50:45;;;;;;;26.23;13.73;;;;;;;13.25;100.00;101662.41;4920128;29;20036;-59
2021/10/28 05:53:11;;;;;;;32.47;15.93;;;;;;;13.23;100.00;101667.16;4921064;29;20493;-59
2021/10/28 05:55:37;;;;;;;31.65;15.35;;;;;;;13.25;100.00;101662.41;4936039;29;20046;-59
2021/10/28 05:58:03;;;;;;;30.40;15.07;;;;;;;13.40;100.00;101658.81;4936643;29;20055;-59
2021/10/28 06:00:28;;;;;;;29.70;14.50;;;;;;;13.31;100.00;101661.63;4904109;29;20479;-56
2021/10/28 06:02:54;;;;;;;29.17;14.75;;;;;;;13.23;100.00;101659.09;4936518;29;20072;-59
2021/10/28 06:05:21;;;;;;;31.75;14.93;;;;;;;13.27;100.00;101654.16;4937331;29;20066;-59
2021/10/28 06:07:47;;;;;;;36.95;17.02;;;;;;;13.19;100.00;101652.44;4937148;29;20044;-61
2021/10/28 06:10:16;;;;;;;34.92;16.40;;;;;;;13.31;100.00;101658.13;4937085;29;20046;-60
2021/10/28 06:12:45;;;;;;;32.28;16.58;;;;;;;13.21;100.00;101663.81;4936634;29;20433;-58
2021/10/28 06:15:13;;;;;;;36.80;17.17;;;;;;;13.48;100.00;101653.31;4937154;29;20036;-60
2021/10/28 06:18:14;;;;;;;32.58;15.43;;;;;;;13.64;100.00;101643.31;4935464;29;20109;-60
2021/10/28 06:20:31;;;;;;;30.90;15.75;;;;;;;13.79;100.00;101646.72;4935834;29;20075;-60
2021/10/28 06:22:57;;;;;;;32.93;15.70;;;;;;;13.43;100.00;101653.09;4937398;29;20094;-60
2021/10/28 06:25:22;;;;;;;32.50;15.88;;;;;;;13.17;100.00;101643.75;4936983;29;20047;-60
2021/10/28 06:27:48;;;;;;;36.42;16.92;;;;;;;13.26;100.00;101647.09;4936535;29;20416;-60
2021/10/28 06:30:14;;;;;;;32.72;16.60;;;;;;;13.29;100.00;101652.13;4919430;29;20040;-59
2021/10/28 06:32:50;;;;;;;40.45;16.77;;;;;;;13.19;100.00;101647.88;4935503;29;20074;-59
2021/10/28 06:35:16;;;;;;;39.35;17.88;;;;;;;13.28;100.00;101655.84;4936318;29;20071;-61
2021/10/28 06:37:46;;;;;;;35.10;15.98;;;;;;;13.05;100.00;101655.00;4936730;29;20120;-59
2021/10/28 06:40:13;;;;;;;34.60;17.88;;;;;;;13.29;100.00;101647.56;4937306;29;20055;-60
2021/10/28 06:42:38;;;;;;;34.20;15.43;;;;;;;13.12;100.00;101651.53;4938141;29;20040;-58
2021/10/28 06:45:04;;;;;;;36.50;16.92;;;;;;;13.14;100.00;101660.22;4937669;29;20142;-60
2021/10/28 06:47:30;;;;;;;33.58;16.92;;;;;;;13.30;100.00;101649.22;4939342;29;20043;-60
2021/10/28 06:49:58;;;;;;;33.90;17.40;;;;;;;13.36;100.00;101649.47;4938752;29;20077;-60
2021/10/28 06:52:24;;;;;;;35.88;16.98;;;;;;;13.26;100.00;101644.41;4937981;29;20035;-59
2021/10/28 06:54:52;;;;;;;37.13;17.73;;;;;;;13.03;100.00;101649.00;4937090;29;20398;-60
2021/10/28 07:02:59;;;;;;;37.45;19.60;;;;;;;13.11;100.00;101644.50;4936590;29;20390;-59
2021/10/28 07:05:25;;;;;;;38.00;19.57;;;;;;;13.11;100.00;101634.59;4937263;29;20035;-59
2021/10/28 07:07:51;;;;;;;47.50;20.98;;;;;;;13.20;100.00;101629.94;4939925;29;20051;-60
2021/10/28 07:10:20;;;;;;;36.88;17.90;;;;;;;13.55;100.00;101635.38;4937029;29;20044;-60
2021/10/28 07:13:05;;;;;;;38.15;17.55;;;;;;;13.64;100.00;101637.94;4936412;29;20481;-60
2021/10/28 07:28:42;;;;;;;41.15;19.52;;;;;;;13.43;100.00;101636.97;4935865;29;20043;-59
2021/10/28 07:38:10;;;;;;;44.58;18.35;;;;;;;13.49;100.00;101636.19;4935907;29;20067;-60
2021/10/28 07:58:28;;;;;;;37.37;16.53;;;;;;;14.16;100.00;101630.34;4935836;29;20262;-59
2021/10/28 08:15:32;;;;;;;26.73;13.83;;;;;;;15.82;100.00;101637.25;4934515;29;20329;-59
2021/10/28 08:19:48;;;;;;;22.53;12.33;;;;;;;16.38;100.00;101635.00;4934609;29;20768;-60
2021/10/28 08:30:17;;;;;;;22.53;11.07;;;;;;;17.80;100.00;101618.53;4935061;29;20270;-59
2021/10/28 08:32:43;;;;;;;23.83;11.07;;;;;;;18.13;100.00;101618.19;4935265;29;20317;-60
2021/10/28 08:35:09;;;;;;;18.30;10.40;;;;;;;18.29;100.00;101610.50;4935483;29;20349;-59
2021/10/28 08:37:53;;;;;;;22.38;11.80;;;;;;;18.77;100.00;101615.03;4935438;29;20046;-60
2021/10/28 08:40:20;;;;;;;22.17;11.20;;;;;;;19.27;100.00;101617.63;4935115;29;20485;-58
2021/10/28 08:42:46;;;;;;;18.27;10.37;;;;;;;18.96;100.00;101614.13;4939199;29;20288;-59
2021/10/28 08:45:19;;;;;;;19.10;10.85;;;;;;;19.18;100.00;101609.00;4938571;29;20286;-59
2021/10/28 08:47:51;;;;;;;16.50;10.30;;;;;;;19.42;100.00;101607.13;4939184;29;20050;-59
2021/10/28 08:50:27;;;;;;;16.43;10.63;;;;;;;19.31;100.00;101606.06;4938772;29;20441;-60
2021/10/28 09:19:25;;;;;;;20.27;10.30;;;;;;;20.30;98.38;101611.69;4938208;29;20034;-59
2021/10/28 09:25:39;;;;;;;14.33;8.73;;;;;;;22.33;74.99;101566.50;4938322;29;20052;-59
2021/10/28 09:28:33;;;;;;;15.30;9.37;;;;;;;22.27;76.07;101567.53;4937934;29;20067;-59
2021/10/28 09:31:20;;;;;;;15.57;8.93;;;;;;;23.04;71.91;101562.75;4938412;29;20035;-60
2021/10/28 09:51:05;;;;;;;14.93;9.10;;;;;;;23.95;64.04;101545.50;4918098;29;20171;-59
2021/10/28 09:53:43;;;;;;;15.70;9.80;;;;;;;23.57;65.25;101548.38;4916585;29;20111;-59
2021/10/28 09:59:04;;;;;;;16.53;9.23;;;;;;;23.91;63.28;101534.28;4917036;29;20048;-59
2021/10/28 10:01:43;;;;;;;14.93;8.43;;;;;;;24.51;60.64;101526.75;4918306;29;20123;-59
2021/10/28 10:04:09;;;;;;;15.47;8.40;;;;;;;23.84;63.39;101527.41;4918113;29;20103;-60
2021/10/28 10:06:39;;;;;;;14.48;8.68;;;;;;;24.35;61.01;101518.53;4918315;29;20039;-59
2021/10/28 10:09:06;;;;;;;15.63;8.80;;;;;;;24.79;56.82;101519.91;4918248;29;20056;-59
2021/10/28 10:11:33;;;;;;;15.63;9.03;;;;;;;24.87;56.55;101513.06;4918012;29;20028;-58
2021/10/28 10:13:59;;;;;;;16.25;8.50;;;;;;;25.00;54.95;101517.97;4917847;29;20106;-60
2021/10/28 10:16:24;;;;;;;;;;;;;;;25.89;54.14;101504.75;4918309;29;20036;-60
2021/10/28 10:18:51;;;;;;;16.70;8.97;;;;;;;25.89;52.53;101510.25;4918064;29;20378;-60
2021/10/28 10:21:32;;;;;;;14.63;9.00;;;;;;;25.84;49.98;101508.38;4918106;29;20119;-59
2021/10/28 12:01:45;;;;;;;13.07;7.35;;;;;;;28.97;38.05;101385.97;4916901;29;20096;-58
2021/10/28 14:27:57;;;;;;;13.43;4.73;;;;;;;29.12;37.73;101194.84;4919746;29;19926;-59
2021/10/28 15:30:01;;;;;;;10.30;2.87;;;;;;;27.93;36.87;101161.69;4936269;29;20186;-59
2021/10/28 15:37:50;;;;;;;8.80;2.60;;;;;;;27.91;36.43;101160.06;4935993;29;20062;-60
2021/10/28 15:57:06;;;;;;;5.83;2.10;;;;;;;23.41;50.20;101129.94;4935651;29;20048;-59
2021/10/28 16:24:12;;;;;;;4.60;2.90;;;;;;;22.27;63.78;101090.81;4935528;29;20067;-59
2021/10/28 16:26:37;;;;;;;5.90;3.07;;;;;;;21.84;65.57;101101.84;4935565;29;20433;-59
2021/10/28 16:29:07;;;;;;;9.85;3.28;;;;;;;22.19;63.97;101103.03;4935690;29;20297;-60
2021/10/28 16:31:34;;;;;;;6.27;3.27;;;;;;;22.15;63.57;101096.50;4935813;29;20059;-60
2021/10/28 16:34:00;;;;;;;8.50;3.03;;;;;;;21.96;64.90;101096.97;4918023;29;20332;-60
2021/10/28 16:36:25;;;;;;;6.30;4.35;;;;;;;21.86;65.32;101084.13;4935070;29;20262;-62
2021/10/28 16:38:52;;;;;;;7.95;4.50;;;;;;;21.35;69.05;101085.47;4935967;29;20168;-59
2021/10/28 16:41:18;;;;;;;8.10;3.40;;;;;;;21.19;72.64;101081.00;4935251;29;20040;-59
2021/10/28 16:43:44;;;;;;;6.60;3.17;;;;;;;21.37;72.44;101095.28;4918015;29;20309;-60
2021/10/28 16:46:10;;;;;;;6.03;3.90;;;;;;;21.27;73.17;101083.25;4918218;29;20474;-59
2021/10/28 16:48:36;;;;;;;8.45;4.72;;;;;;;21.41;72.97;101085.50;4934585;29;20043;-59
2021/10/28 16:51:03;;;;;;;;;;;;;;;21.53;72.61;101088.84;4935884;29;20512;-59
2021/10/28 16:53:28;;;;;;;6.00;3.88;;;;;;;21.32;73.88;101087.88;4934986;29;20288;-60
2021/10/28 16:55:54;;;;;;;9.63;4.53;;;;;;;21.01;76.90;101087.69;4916855;29;20042;-59
2021/10/28 16:58:19;;;;;;;6.20;4.10;;;;;;;21.26;76.48;101092.50;4933264;29;20035;-60
2021/10/28 17:00:48;;;;;;;6.13;3.73;;;;;;;21.18;76.06;101076.66;4924856;29;20131;-58
2021/10/28 17:03:13;;;;;;;13.00;4.50;;;;;;;20.99;79.11;101074.38;4950333;29;20040;-59
2021/10/28 17:05:39;;;;;;;7.87;4.57;;;;;;;20.78;81.26;101070.59;4943562;29;20264;-59
2021/10/28 17:08:05;;;;;;;10.40;4.97;;;;;;;20.74;82.13;101072.22;4926602;29;20273;-58
2021/10/28 17:10:30;;;;;;;9.02;4.32;;;;;;;20.33;87.11;101073.44;4946363;29;20777;-60
2021/10/28 17:12:57;;;;;;;9.02;4.60;;;;;;;20.19;90.20;101075.75;4946182;29;20490;-59
2021/10/28 17:15:22;;;;;;;;;;;;;;;20.45;88.79;101080.63;4948943;28;20061;-60
2021/10/28 17:17:48;;;;;;;8.47;4.30;;;;;;;19.99;93.27;101067.34;4941336;29;20360;-59
2021/10/28 17:20:13;;;;;;;8.93;3.83;;;;;;;19.88;95.98;101078.06;4924263;29;20457;-56
2021/10/28 17:22:39;;;;;;;6.85;4.25;;;;;;;19.73;98.65;101067.84;4924758;29;20051;-59
2021/10/28 17:25:07;;;;;;;13.07;5.33;;;;;;;20.28;93.57;101069.84;4957800;29;20515;-59
2021/10/28 17:27:33;;;;;;;7.57;4.50;;;;;;;20.01;97.24;101070.63;4937244;29;20282;-58
2021/10/28 17:30:01;;;;;;;8.77;4.68;;;;;;;19.87;99.52;101065.59;4951198;29;20736;-59
2021/10/28 17:32:26;;;;;;;8.10;4.27;;;;;;;19.81;100.00;101063.84;4919420;29;20048;-59
2021/10/28 17:34:52;;;;;;;8.38;4.95;;;;;;;19.81;100.00;101063.06;4935742;29;20381;-59
2021/10/28 17:37:17;;;;;;;10.65;5.30;;;;;;;19.67;100.00;101065.31;4936426;29;20054;-61
2021/10/28 17:39:43;;;;;;;19.20;5.60;;;;;;;19.78;100.00;101057.06;4937282;29;20127;-61
2021/10/28 17:42:09;;;;;;;10.35;5.15;;;;;;;19.58;100.00;101054.06;4924944;29;20048;-61
2021/10/28 17:44:41;;;;;;;10.45;4.93;;;;;;;19.59;100.00;101053.81;4934887;29;20047;-59
2021/10/28 17:47:07;;;;;;;8.87;5.00;;;;;;;19.43;100.00;101050.06;4918932;29;20063;-60
2021/10/28 17:49:33;;;;;;;10.23;5.90;;;;;;;19.42;100.00;101050.34;4936184;29;20265;-60
2021/10/28 17:51:59;;;;;;;10.85;5.45;;;;;;;19.51;100.00;101061.59;4918918;29;20114;-59
2021/10/28 17:54:24;;;;;;;12.85;6.82;;;;;;;19.44;100.00;101046.28;4935202;29;20048;-60
2021/10/28 17:56:50;;;;;;;10.70;5.65;;;;;;;19.33;100.00;101064.31;4936913;29;20446;-61
2021/10/28 17:59:18;;;;;;;8.60;5.00;;;;;;;19.26;100.00;101050.09;4937379;29;20533;-59
2021/10/28 18:01:43;;;;;;;11.40;5.40;;;;;;;19.38;100.00;101051.91;4936704;29;20039;-60
2021/10/28 18:04:10;;;;;;;8.40;5.37;;;;;;;19.42;100.00;101053.84;4937213;29;20288;-60
2021/10/28 18:06:36;;;;;;;14.82;5.53;;;;;;;19.51;100.00;101056.97;4938006;29;20288;-61
2021/10/28 18:09:04;;;;;;;12.18;6.20;;;;;;;19.46;100.00;101054.19;4936753;29;20494;-59
2021/10/28 18:11:30;;;;;;;10.37;5.80;;;;;;;19.17;100.00;101065.16;4937957;29;20494;-59
2021/10/28 18:13:57;;;;;;;12.10;5.55;;;;;;;19.32;100.00;101061.84;4936602;29;20353;-60
2021/10/28 18:16:27;;;;;;;11.50;5.90;;;;;;;19.16;100.00;101055.41;4936624;29;20066;-59
2021/10/28 18:18:58;;;;;;;14.83;5.83;;;;;;;18.91;100.00;101054.69;4937635;29;20278;-58
2021/10/28 18:21:26;;;;;;;12.23;5.60;;;;;;;18.90;100.00;101053.06;4935782;29;20339;-59
2021/10/28 18:23:54;;;;;;;13.63;5.93;;;;;;;19.06;100.00;101056.06;4937472;29;20697;-59
2021/10/28 18:26:20;;;;;;;9.23;5.40;;;;;;;18.75;100.00;101047.38;4937313;29;20270;-59
2021/10/28 18:28:47;;;;;;;15.75;6.15;;;;;;;18.70;100.00;101047.31;4937238;29;20377;-60
2021/10/28 18:31:13;;;;;;;10.07;5.23;;;;;;;18.72;100.00;101048.72;4936921;29;20047;-59
2021/10/28 18:33:38;;;;;;;9.50;5.78;;;;;;;18.58;100.00;101050.06;4937360;29;20744;-59
2021/10/28 18:36:06;;;;;;;9.77;5.80;;;;;;;18.49;100.00;101058.63;4937559;29;20040;-60
2021/10/28 18:38:32;;;;;;;14.40;6.23;;;;;;;18.51;100.00;101052.13;4937024;29;20080;-59
2021/10/28 18:40:59;;;;;;;11.15;5.43;;;;;;;18.37;100.00;101044.28;4937051;29;20325;-59
2021/10/28 18:43:25;;;;;;;17.60;5.77;;;;;;;18.43;100.00;101046.03;4936495;29;20148;-58
2021/10/28 18:45:50;;;;;;;11.05;6.13;;;;;;;18.25;100.00;101041.63;4936763;29;20281;-59
2021/10/28 18:48:16;;;;;;;13.40;5.83;;;;;;;18.20;100.00;101033.44;4920012;29;20485;-59
2021/10/28 18:50:42;;;;;;;12.63;6.30;;;;;;;18.42;100.00;101041.66;4898777;29;20123;-60
2021/10/28 18:53:08;;;;;;;13.20;7.00;;;;;;;18.20;100.00;101039.66;4909160;29;20036;-59
2021/10/28 18:55:36;;;;;;;14.00;6.43;;;;;;;17.97;100.00;101043.25;4918212;29;20067;-60
2021/10/28 18:58:02;;;;;;;9.53;5.80;;;;;;;17.88;100.00;101042.00;4923659;29;20390;-59
2021/10/28 19:00:27;;;;;;;11.73;6.20;;;;;;;17.96;100.00;101024.53;4919456;29;20288;-59
2021/10/28 19:02:53;;;;;;;9.55;6.22;;;;;;;17.89;100.00;101049.84;4936329;29;20044;-59
2021/10/28 19:05:20;;;;;;;10.70;6.20;;;;;;;17.89;100.00;101043.63;4919946;29;20070;-60
2021/10/28 19:07:47;;;;;;;20.53;5.50;;;;;;;17.81;100.00;101035.88;4936578;29;20043;-59
2021/10/28 19:10:15;;;;;;;10.30;6.47;;;;;;;17.77;100.00;101025.53;4936508;29;20290;-59
2021/10/28 19:12:41;;;;;;;13.68;5.30;;;;;;;17.84;100.00;101033.53;4936696;29;20274;-59
2021/10/28 19:15:08;;;;;;;13.13;6.10;;;;;;;17.97;100.00;101020.78;4938945;28;20051;-59
2021/10/28 19:17:33;;;;;;;;;;;;;;;17.90;100.00;101027.16;4935887;29;20365;-59
2021/10/28 19:20:00;;;;;;;15.87;6.20;;;;;;;17.72;100.00;101021.91;4936352;29;20341;-59
2021/10/28 19:22:30;;;;;;;11.37;5.63;;;;;;;18.00;100.00;101023.03;4936120;29;20039;-59
2021/10/28 19:25:00;;;;;;;14.47;6.33;;;;;;;17.82;100.00;101032.09;4917818;29;20365;-60
2021/10/28 19:27:26;;;;;;;10.67;5.70;;;;;;;17.74;100.00;101034.13;4936067;29;20309;-58
2021/10/28 19:29:58;;;;;;;13.57;6.03;;;;;;;17.82;100.00;101018.59;4934608;29;20321;-59
2021/10/28 19:32:25;;;;;;;11.20;6.00;;;;;;;17.81;100.00;101025.06;4919413;29;20453;-59
2021/10/28 19:34:51;;;;;;;16.10;6.23;;;;;;;17.62;100.00;101028.75;4935945;29;20601;-60
2021/10/28 19:47:45;;;;;;;12.47;6.50;;;;;;;17.63;100.00;101014.16;4933605;29;20637;-60
2021/10/28 19:50:14;;;;;;;9.85;6.75;;;;;;;17.71;100.00;101009.44;4935114;29;20265;-59
2021/10/28 19:52:41;;;;;;;15.07;7.63;;;;;;;17.44;100.00;101009.97;4934202;29;20127;-60
2021/10/28 19:55:08;;;;;;;17.67;7.80;;;;;;;17.42;100.00;101012.09;4935762;29;20735;-60
2021/10/28 19:57:37;;;;;;;17.00;8.13;;;;;;;17.44;100.00;101004.56;4935611;29;20398;-60
2021/10/28 20:00:21;;;;;;;14.77;8.20;;;;;;;17.28;100.00;100998.81;4934052;29;20819;-57
2021/10/28 20:13:48;;;;;;;13.57;8.77;;;;;;;17.02;100.00;100997.44;4933702;29;20055;-57
2021/10/28 20:21:26;;;;;;;15.53;8.60;;;;;;;16.99;100.00;100987.91;4934669;29;20771;-59
2021/10/28 20:23:52;;;;;;;13.13;8.17;;;;;;;16.94;100.00;100984.22;4935204;29;20304;-60
2021/10/28 20:26:18;;;;;;;22.83;8.45;;;;;;;16.85;100.00;100989.19;4918969;29;20181;-60
2021/10/28 20:28:47;;;;;;;17.23;8.63;;;;;;;16.96;100.00;100988.34;4935162;29;20056;-60
2021/10/28 20:31:17;;;;;;;15.73;8.20;;;;;;;16.82;100.00;100979.66;4918160;29;20051;-59
2021/10/28 20:33:47;;;;;;;14.00;7.97;;;;;;;16.69;100.00;100987.97;4935215;29;20317;-58
2021/10/28 20:38:59;;;;;;;16.13;8.33;;;;;;;16.68;100.00;100970.13;4923575;29;20315;-59